sensor_id;sensor_type;location;lat;lon;timestamp;P1;durP1;ratioP1;P2;durP2;ratioP2
23360;SDS011;11852;50.082;18.554;2024-03-25T00:00:29;10.7;;;3.0;;
23360;SDS011;11852;50.082;18.554;2024-03-25T00:01:34;5.9;;;2.9;;
23360;SDS011;11852;50.082;18.554;2024-03-25T00:02:39;6.4;;;3.1;;
23360;SDS011;11852;50.082;18.554;2024-03-25T00:03:43;5.3;;;3.0;;
23360;SDS011;11852;50.082;18.554;2024-03-25T00:04:48;5.0;;;2.7;;
23360;SDS011;11852;50.082;18.554;2024-03-25T00:05:53;5.5;;;3.0;;
23360;SDS011;11852;50.082;18.554;2024-03-25T00:06:58;5.4;;;2.8;;
23360;SDS011;11852;50.082;18.554;2024-03-25T00:08:03;6.1;;;2.7;;
23360;SDS011;11852;50.082;18.554;2024-03-25T00:09:08;5.1;;;2.7;;
23360;SDS011;11852;50.082;18.554;2024-03-25T00:10:13;5.6;;;2.9;;
23360;SDS011;11852;50.082;18.554;2024-03-25T00:11:18;5.1;;;2.4;;
23360;SDS011;11852;50.082;18.554;2024-03-25T00:12:22;5.2;;;2.4;;
23360;SDS011;11852;50.082;18.554;2024-03-25T00:13:27;5.5;;;2.6;;
23360;SDS011;11852;50.082;18.554;2024-03-25T00:14:32;5.0;;;2.4;;
23360;SDS011;11852;50.082;18.554;2024-03-25T00:15:37;4.7;;;2.5;;
23360;SDS011;11852;50.082;18.554;2024-03-25T00:16:42;5.0;;;2.4;;
23360;SDS011;11852;50.082;18.554;2024-03-25T00:17:47;5.3;;;2.8;;
23360;SDS011;11852;50.082;18.554;2024-03-25T00:18:52;5.0;;;2.5;;
23360;SDS011;11852;50.082;18.554;2024-03-25T00:19:57;4.7;;;2.2;;
23360;SDS011;11852;50.082;18.554;2024-03-25T00:21:04;5.5;;;2.8;;
23360;SDS011;11852;50.082;18.554;2024-03-25T00:22:09;6.0;;;2.7;;
23360;SDS011;11852;50.082;18.554;2024-03-25T00:23:13;5.3;;;2.4;;
23360;SDS011;11852;50.082;18.554;2024-03-25T00:24:18;5.2;;;2.7;;
23360;SDS011;11852;50.082;18.554;2024-03-25T00:25:23;5.1;;;2.3;;
23360;SDS011;11852;50.082;18.554;2024-03-25T00:26:28;5.1;;;2.8;;
23360;SDS011;11852;50.082;18.554;2024-03-25T00:27:33;4.9;;;2.4;;
23360;SDS011;11852;50.082;18.554;2024-03-25T00:28:38;4.4;;;2.3;;
23360;SDS011;11852;50.082;18.554;2024-03-25T00:29:43;4.9;;;2.4;;
23360;SDS011;11852;50.082;18.554;2024-03-25T00:30:47;4.4;;;2.4;;
23360;SDS011;11852;50.082;18.554;2024-03-25T00:31:52;4.8;;;2.5;;
23360;SDS011;11852;50.082;18.554;2024-03-25T00:32:57;5.8;;;2.4;;
23360;SDS011;11852;50.082;18.554;2024-03-25T00:34:02;5.5;;;2.8;;
23360;SDS011;11852;50.082;18.554;2024-03-25T00:35:07;4.4;;;2.3;;
23360;SDS011;11852;50.082;18.554;2024-03-25T00:36:12;5.9;;;2.3;;
23360;SDS011;11852;50.082;18.554;2024-03-25T00:37:17;5.0;;;2.5;;
23360;SDS011;11852;50.082;18.554;2024-03-25T00:38:22;4.6;;;2.1;;
23360;SDS011;11852;50.082;18.554;2024-03-25T00:39:27;4.3;;;2.1;;
23360;SDS011;11852;50.082;18.554;2024-03-25T00:40:31;4.2;;;2.1;;
23360;SDS011;11852;50.082;18.554;2024-03-25T00:41:36;4.4;;;2.2;;
23360;SDS011;11852;50.082;18.554;2024-03-25T00:42:41;4.5;;;2.3;;
23360;SDS011;11852;50.082;18.554;2024-03-25T00:43:46;4.2;;;2.1;;
23360;SDS011;11852;50.082;18.554;2024-03-25T00:44:51;4.5;;;2.3;;
23360;SDS011;11852;50.082;18.554;2024-03-25T00:45:56;5.1;;;2.7;;
23360;SDS011;11852;50.082;18.554;2024-03-25T00:47:01;4.6;;;2.6;;
23360;SDS011;11852;50.082;18.554;2024-03-25T00:48:06;4.7;;;2.4;;
23360;SDS011;11852;50.082;18.554;2024-03-25T00:49:11;4.6;;;2.2;;
23360;SDS011;11852;50.082;18.554;2024-03-25T00:50:15;4.4;;;2.4;;
23360;SDS011;11852;50.082;18.554;2024-03-25T00:51:20;5.3;;;2.3;;
23360;SDS011;11852;50.082;18.554;2024-03-25T00:52:25;4.4;;;2.3;;
23360;SDS011;11852;50.082;18.554;2024-03-25T00:53:30;4.4;;;2.4;;
23360;SDS011;11852;50.082;18.554;2024-03-25T00:54:35;5.1;;;2.4;;
23360;SDS011;11852;50.082;18.554;2024-03-25T00:55:40;4.8;;;2.1;;
23360;SDS011;11852;50.082;18.554;2024-03-25T00:56:44;4.4;;;2.3;;
23360;SDS011;11852;50.082;18.554;2024-03-25T00:57:49;4.5;;;2.1;;
23360;SDS011;11852;50.082;18.554;2024-03-25T00:58:54;4.4;;;2.2;;
23360;SDS011;11852;50.082;18.554;2024-03-25T00:59:59;3.8;;;2.1;;
23360;SDS011;11852;50.082;18.554;2024-03-25T01:01:04;6.2;;;2.3;;
23360;SDS011;11852;50.082;18.554;2024-03-25T01:02:09;5.1;;;2.4;;
23360;SDS011;11852;50.082;18.554;2024-03-25T01:03:14;4.8;;;2.4;;
23360;SDS011;11852;50.082;18.554;2024-03-25T01:04:19;3.8;;;1.9;;
23360;SDS011;11852;50.082;18.554;2024-03-25T01:05:24;4.1;;;2.2;;
23360;SDS011;11852;50.082;18.554;2024-03-25T01:06:28;5.7;;;2.4;;
23360;SDS011;11852;50.082;18.554;2024-03-25T01:07:33;5.3;;;2.6;;
23360;SDS011;11852;50.082;18.554;2024-03-25T01:08:38;5.1;;;2.5;;
23360;SDS011;11852;50.082;18.554;2024-03-25T01:09:43;4.5;;;2.4;;
23360;SDS011;11852;50.082;18.554;2024-03-25T01:10:48;4.6;;;2.7;;
23360;SDS011;11852;50.082;18.554;2024-03-25T01:11:53;4.8;;;2.3;;
23360;SDS011;11852;50.082;18.554;2024-03-25T01:12:58;5.4;;;2.7;;
23360;SDS011;11852;50.082;18.554;2024-03-25T01:14:03;4.3;;;2.3;;
23360;SDS011;11852;50.082;18.554;2024-03-25T01:15:08;5.1;;;2.3;;
23360;SDS011;11852;50.082;18.554;2024-03-25T01:16:12;4.6;;;2.5;;
23360;SDS011;11852;50.082;18.554;2024-03-25T01:17:17;5.1;;;2.4;;
23360;SDS011;11852;50.082;18.554;2024-03-25T01:18:22;4.5;;;2.6;;
23360;SDS011;11852;50.082;18.554;2024-03-25T01:19:27;5.1;;;2.7;;
23360;SDS011;11852;50.082;18.554;2024-03-25T01:20:35;5.0;;;2.8;;
23360;SDS011;11852;50.082;18.554;2024-03-25T01:21:40;5.5;;;2.8;;
23360;SDS011;11852;50.082;18.554;2024-03-25T01:22:44;4.5;;;2.5;;
23360;SDS011;11852;50.082;18.554;2024-03-25T01:23:49;4.8;;;2.2;;
23360;SDS011;11852;50.082;18.554;2024-03-25T01:24:54;4.9;;;2.7;;
23360;SDS011;11852;50.082;18.554;2024-03-25T01:25:59;4.9;;;2.2;;
23360;SDS011;11852;50.082;18.554;2024-03-25T01:27:04;5.1;;;2.8;;
23360;SDS011;11852;50.082;18.554;2024-03-25T01:28:09;4.5;;;2.4;;
23360;SDS011;11852;50.082;18.554;2024-03-25T01:29:14;5.0;;;2.6;;
23360;SDS011;11852;50.082;18.554;2024-03-25T01:30:19;4.8;;;2.9;;
23360;SDS011;11852;50.082;18.554;2024-03-25T01:31:23;4.8;;;2.6;;
23360;SDS011;11852;50.082;18.554;2024-03-25T01:32:28;5.0;;;2.7;;
23360;SDS011;11852;50.082;18.554;2024-03-25T01:33:33;5.2;;;2.6;;
23360;SDS011;11852;50.082;18.554;2024-03-25T01:34:38;5.0;;;2.8;;
23360;SDS011;11852;50.082;18.554;2024-03-25T01:35:43;4.7;;;2.4;;
23360;SDS011;11852;50.082;18.554;2024-03-25T01:36:48;5.1;;;2.7;;
23360;SDS011;11852;50.082;18.554;2024-03-25T01:37:53;5.6;;;2.3;;
23360;SDS011;11852;50.082;18.554;2024-03-25T01:38:58;4.6;;;2.5;;
23360;SDS011;11852;50.082;18.554;2024-03-25T01:40:03;4.3;;;2.4;;
23360;SDS011;11852;50.082;18.554;2024-03-25T01:41:08;5.1;;;2.6;;
23360;SDS011;11852;50.082;18.554;2024-03-25T01:42:13;4.5;;;2.5;;
23360;SDS011;11852;50.082;18.554;2024-03-25T01:43:17;5.0;;;2.7;;
23360;SDS011;11852;50.082;18.554;2024-03-25T01:44:22;5.0;;;2.4;;
23360;SDS011;11852;50.082;18.554;2024-03-25T01:45:27;4.7;;;2.7;;
23360;SDS011;11852;50.082;18.554;2024-03-25T01:46:32;5.6;;;3.0;;
23360;SDS011;11852;50.082;18.554;2024-03-25T01:47:37;4.8;;;2.7;;
23360;SDS011;11852;50.082;18.554;2024-03-25T01:48:42;5.6;;;3.3;;
23360;SDS011;11852;50.082;18.554;2024-03-25T01:49:46;4.5;;;2.6;;
23360;SDS011;11852;50.082;18.554;2024-03-25T01:50:51;4.9;;;2.8;;
23360;SDS011;11852;50.082;18.554;2024-03-25T01:51:56;4.5;;;2.5;;
23360;SDS011;11852;50.082;18.554;2024-03-25T01:53:02;5.7;;;3.0;;
23360;SDS011;11852;50.082;18.554;2024-03-25T01:54:06;5.6;;;3.0;;
23360;SDS011;11852;50.082;18.554;2024-03-25T01:55:12;5.2;;;2.8;;
23360;SDS011;11852;50.082;18.554;2024-03-25T01:56:16;5.4;;;2.9;;
23360;SDS011;11852;50.082;18.554;2024-03-25T01:57:21;5.1;;;2.5;;
23360;SDS011;11852;50.082;18.554;2024-03-25T01:58:26;5.3;;;2.5;;
23360;SDS011;11852;50.082;18.554;2024-03-25T01:59:30;4.7;;;2.5;;
23360;SDS011;11852;50.082;18.554;2024-03-25T02:00:35;5.5;;;3.2;;
23360;SDS011;11852;50.082;18.554;2024-03-25T02:01:40;5.1;;;2.9;;
23360;SDS011;11852;50.082;18.554;2024-03-25T02:02:45;5.6;;;2.8;;
23360;SDS011;11852;50.082;18.554;2024-03-25T02:03:50;4.7;;;2.7;;
23360;SDS011;11852;50.082;18.554;2024-03-25T02:04:55;5.0;;;2.5;;
23360;SDS011;11852;50.082;18.554;2024-03-25T02:06:03;4.6;;;2.6;;
23360;SDS011;11852;50.082;18.554;2024-03-25T02:07:07;4.4;;;2.6;;
23360;SDS011;11852;50.082;18.554;2024-03-25T02:08:12;5.2;;;2.6;;
23360;SDS011;11852;50.082;18.554;2024-03-25T02:09:17;4.7;;;2.6;;
23360;SDS011;11852;50.082;18.554;2024-03-25T02:10:22;4.9;;;2.8;;
23360;SDS011;11852;50.082;18.554;2024-03-25T02:11:27;5.4;;;2.7;;
23360;SDS011;11852;50.082;18.554;2024-03-25T02:12:32;4.6;;;2.5;;
23360;SDS011;11852;50.082;18.554;2024-03-25T02:13:37;4.4;;;2.6;;
23360;SDS011;11852;50.082;18.554;2024-03-25T02:14:41;6.6;;;2.7;;
23360;SDS011;11852;50.082;18.554;2024-03-25T02:15:46;5.0;;;2.8;;
23360;SDS011;11852;50.082;18.554;2024-03-25T02:16:51;4.5;;;2.4;;
23360;SDS011;11852;50.082;18.554;2024-03-25T02:17:56;5.3;;;2.6;;
23360;SDS011;11852;50.082;18.554;2024-03-25T02:19:01;4.5;;;2.3;;
23360;SDS011;11852;50.082;18.554;2024-03-25T02:20:06;5.2;;;3.0;;
23360;SDS011;11852;50.082;18.554;2024-03-25T02:21:11;5.1;;;2.9;;
23360;SDS011;11852;50.082;18.554;2024-03-25T02:22:16;5.0;;;2.8;;
23360;SDS011;11852;50.082;18.554;2024-03-25T02:23:21;4.9;;;2.8;;
23360;SDS011;11852;50.082;18.554;2024-03-25T02:24:26;5.2;;;3.3;;
23360;SDS011;11852;50.082;18.554;2024-03-25T02:25:31;4.8;;;2.6;;
23360;SDS011;11852;50.082;18.554;2024-03-25T02:26:35;4.9;;;2.9;;
23360;SDS011;11852;50.082;18.554;2024-03-25T02:27:40;4.7;;;2.6;;
23360;SDS011;11852;50.082;18.554;2024-03-25T02:28:45;4.8;;;2.5;;
23360;SDS011;11852;50.082;18.554;2024-03-25T02:29:50;5.2;;;2.9;;
23360;SDS011;11852;50.082;18.554;2024-03-25T02:30:55;5.1;;;2.5;;
23360;SDS011;11852;50.082;18.554;2024-03-25T02:32:00;5.4;;;2.9;;
23360;SDS011;11852;50.082;18.554;2024-03-25T02:33:04;5.6;;;2.8;;
23360;SDS011;11852;50.082;18.554;2024-03-25T02:34:09;5.7;;;3.0;;
23360;SDS011;11852;50.082;18.554;2024-03-25T02:35:15;5.0;;;2.8;;
23360;SDS011;11852;50.082;18.554;2024-03-25T02:36:19;5.1;;;2.8;;
23360;SDS011;11852;50.082;18.554;2024-03-25T02:37:25;5.5;;;3.3;;
23360;SDS011;11852;50.082;18.554;2024-03-25T02:38:29;4.9;;;2.4;;
23360;SDS011;11852;50.082;18.554;2024-03-25T02:39:36;5.6;;;2.6;;
23360;SDS011;11852;50.082;18.554;2024-03-25T02:40:41;5.6;;;2.8;;
23360;SDS011;11852;50.082;18.554;2024-03-25T02:41:46;4.9;;;2.7;;
23360;SDS011;11852;50.082;18.554;2024-03-25T02:42:51;5.0;;;2.7;;
23360;SDS011;11852;50.082;18.554;2024-03-25T02:43:56;5.3;;;3.0;;
23360;SDS011;11852;50.082;18.554;2024-03-25T02:45:00;5.1;;;2.7;;
23360;SDS011;11852;50.082;18.554;2024-03-25T02:46:05;4.2;;;2.3;;
23360;SDS011;11852;50.082;18.554;2024-03-25T02:47:10;4.2;;;2.4;;
23360;SDS011;11852;50.082;18.554;2024-03-25T02:48:15;4.7;;;2.5;;
23360;SDS011;11852;50.082;18.554;2024-03-25T02:49:20;4.6;;;2.7;;
23360;SDS011;11852;50.082;18.554;2024-03-25T02:50:25;4.7;;;2.6;;
23360;SDS011;11852;50.082;18.554;2024-03-25T02:51:30;4.3;;;2.4;;
23360;SDS011;11852;50.082;18.554;2024-03-25T02:52:34;5.0;;;2.4;;
23360;SDS011;11852;50.082;18.554;2024-03-25T02:53:39;4.5;;;2.3;;
23360;SDS011;11852;50.082;18.554;2024-03-25T02:54:44;4.4;;;2.2;;
23360;SDS011;11852;50.082;18.554;2024-03-25T02:55:49;4.1;;;2.1;;
23360;SDS011;11852;50.082;18.554;2024-03-25T02:56:54;4.7;;;2.5;;
23360;SDS011;11852;50.082;18.554;2024-03-25T02:57:59;4.6;;;2.5;;
23360;SDS011;11852;50.082;18.554;2024-03-25T02:59:04;5.0;;;2.7;;
23360;SDS011;11852;50.082;18.554;2024-03-25T03:00:09;5.2;;;2.7;;
23360;SDS011;11852;50.082;18.554;2024-03-25T03:01:15;5.2;;;2.4;;
23360;SDS011;11852;50.082;18.554;2024-03-25T03:02:19;4.8;;;2.6;;
23360;SDS011;11852;50.082;18.554;2024-03-25T03:03:23;5.3;;;3.0;;
23360;SDS011;11852;50.082;18.554;2024-03-25T03:04:28;4.5;;;2.1;;
23360;SDS011;11852;50.082;18.554;2024-03-25T03:05:33;6.1;;;2.4;;
23360;SDS011;11852;50.082;18.554;2024-03-25T03:06:38;4.7;;;2.6;;
23360;SDS011;11852;50.082;18.554;2024-03-25T03:07:43;4.3;;;2.2;;
23360;SDS011;11852;50.082;18.554;2024-03-25T03:08:48;4.1;;;2.5;;
23360;SDS011;11852;50.082;18.554;2024-03-25T03:09:53;4.7;;;2.3;;
23360;SDS011;11852;50.082;18.554;2024-03-25T03:10:58;4.4;;;2.4;;
23360;SDS011;11852;50.082;18.554;2024-03-25T03:12:02;4.3;;;2.3;;
23360;SDS011;11852;50.082;18.554;2024-03-25T03:13:07;4.3;;;2.3;;
23360;SDS011;11852;50.082;18.554;2024-03-25T03:14:12;4.5;;;2.5;;
23360;SDS011;11852;50.082;18.554;2024-03-25T03:15:17;4.7;;;2.4;;
23360;SDS011;11852;50.082;18.554;2024-03-25T03:16:22;3.9;;;2.3;;
23360;SDS011;11852;50.082;18.554;2024-03-25T03:17:27;4.3;;;2.2;;
23360;SDS011;11852;50.082;18.554;2024-03-25T03:18:32;5.1;;;2.3;;
23360;SDS011;11852;50.082;18.554;2024-03-25T03:19:37;4.2;;;2.2;;
23360;SDS011;11852;50.082;18.554;2024-03-25T03:20:42;4.4;;;2.2;;
23360;SDS011;11852;50.082;18.554;2024-03-25T03:21:46;5.2;;;2.5;;
23360;SDS011;11852;50.082;18.554;2024-03-25T03:22:51;4.8;;;2.7;;
23360;SDS011;11852;50.082;18.554;2024-03-25T03:23:56;4.7;;;2.2;;
23360;SDS011;11852;50.082;18.554;2024-03-25T03:25:01;4.6;;;2.4;;
23360;SDS011;11852;50.082;18.554;2024-03-25T03:26:06;4.0;;;2.2;;
23360;SDS011;11852;50.082;18.554;2024-03-25T03:27:11;4.3;;;2.2;;
23360;SDS011;11852;50.082;18.554;2024-03-25T03:28:16;4.2;;;2.2;;
23360;SDS011;11852;50.082;18.554;2024-03-25T03:29:21;5.0;;;2.7;;
23360;SDS011;11852;50.082;18.554;2024-03-25T03:30:25;4.0;;;2.3;;
23360;SDS011;11852;50.082;18.554;2024-03-25T03:31:30;4.6;;;2.2;;
23360;SDS011;11852;50.082;18.554;2024-03-25T03:32:35;4.7;;;2.4;;
23360;SDS011;11852;50.082;18.554;2024-03-25T03:33:40;3.8;;;2.0;;
23360;SDS011;11852;50.082;18.554;2024-03-25T03:34:45;4.7;;;2.2;;
23360;SDS011;11852;50.082;18.554;2024-03-25T03:35:50;4.4;;;2.3;;
23360;SDS011;11852;50.082;18.554;2024-03-25T03:36:55;5.0;;;2.2;;
23360;SDS011;11852;50.082;18.554;2024-03-25T03:38:02;4.7;;;2.4;;
23360;SDS011;11852;50.082;18.554;2024-03-25T03:39:07;5.5;;;2.7;;
23360;SDS011;11852;50.082;18.554;2024-03-25T03:40:12;5.0;;;2.3;;
23360;SDS011;11852;50.082;18.554;2024-03-25T03:41:17;5.0;;;2.7;;
23360;SDS011;11852;50.082;18.554;2024-03-25T03:42:22;4.4;;;2.3;;
23360;SDS011;11852;50.082;18.554;2024-03-25T03:43:29;5.3;;;3.0;;
23360;SDS011;11852;50.082;18.554;2024-03-25T03:44:34;5.2;;;2.7;;
23360;SDS011;11852;50.082;18.554;2024-03-25T03:45:39;4.4;;;2.4;;
23360;SDS011;11852;50.082;18.554;2024-03-25T03:46:44;4.9;;;2.7;;
23360;SDS011;11852;50.082;18.554;2024-03-25T03:47:49;4.7;;;2.3;;
23360;SDS011;11852;50.082;18.554;2024-03-25T03:48:54;4.8;;;2.9;;
23360;SDS011;11852;50.082;18.554;2024-03-25T03:49:59;5.0;;;2.4;;
23360;SDS011;11852;50.082;18.554;2024-03-25T03:51:07;4.9;;;2.7;;
23360;SDS011;11852;50.082;18.554;2024-03-25T03:52:11;5.7;;;2.4;;
23360;SDS011;11852;50.082;18.554;2024-03-25T03:53:17;4.7;;;2.5;;
23360;SDS011;11852;50.082;18.554;2024-03-25T03:54:21;5.3;;;2.7;;
23360;SDS011;11852;50.082;18.554;2024-03-25T03:55:26;4.9;;;2.7;;
23360;SDS011;11852;50.082;18.554;2024-03-25T03:56:33;5.1;;;2.7;;
23360;SDS011;11852;50.082;18.554;2024-03-25T03:57:38;5.5;;;2.5;;
23360;SDS011;11852;50.082;18.554;2024-03-25T03:58:43;5.9;;;3.0;;
23360;SDS011;11852;50.082;18.554;2024-03-25T03:59:48;5.4;;;2.5;;
23360;SDS011;11852;50.082;18.554;2024-03-25T04:00:53;5.9;;;2.6;;
23360;SDS011;11852;50.082;18.554;2024-03-25T04:01:58;5.8;;;2.7;;
23360;SDS011;11852;50.082;18.554;2024-03-25T04:03:03;5.4;;;2.7;;
23360;SDS011;11852;50.082;18.554;2024-03-25T04:04:08;6.2;;;3.4;;
23360;SDS011;11852;50.082;18.554;2024-03-25T04:05:12;5.6;;;2.9;;
23360;SDS011;11852;50.082;18.554;2024-03-25T04:06:17;6.3;;;3.0;;
23360;SDS011;11852;50.082;18.554;2024-03-25T04:07:22;5.2;;;2.9;;
23360;SDS011;11852;50.082;18.554;2024-03-25T04:08:27;5.6;;;2.6;;
23360;SDS011;11852;50.082;18.554;2024-03-25T04:09:32;4.9;;;2.6;;
23360;SDS011;11852;50.082;18.554;2024-03-25T04:10:37;4.9;;;2.6;;
23360;SDS011;11852;50.082;18.554;2024-03-25T04:11:42;5.1;;;2.6;;
23360;SDS011;11852;50.082;18.554;2024-03-25T04:12:47;6.3;;;3.0;;
23360;SDS011;11852;50.082;18.554;2024-03-25T04:13:52;5.7;;;2.8;;
23360;SDS011;11852;50.082;18.554;2024-03-25T04:14:57;4.7;;;2.4;;
23360;SDS011;11852;50.082;18.554;2024-03-25T04:16:02;6.0;;;2.9;;
23360;SDS011;11852;50.082;18.554;2024-03-25T04:17:09;5.0;;;2.7;;
23360;SDS011;11852;50.082;18.554;2024-03-25T04:18:14;5.6;;;2.7;;
23360;SDS011;11852;50.082;18.554;2024-03-25T04:19:20;5.3;;;2.5;;
23360;SDS011;11852;50.082;18.554;2024-03-25T04:20:24;5.4;;;3.0;;
23360;SDS011;11852;50.082;18.554;2024-03-25T04:21:29;5.8;;;2.9;;
23360;SDS011;11852;50.082;18.554;2024-03-25T04:22:34;5.6;;;2.6;;
23360;SDS011;11852;50.082;18.554;2024-03-25T04:23:39;5.5;;;3.0;;
23360;SDS011;11852;50.082;18.554;2024-03-25T04:24:43;5.3;;;2.8;;
23360;SDS011;11852;50.082;18.554;2024-03-25T04:25:49;5.2;;;2.7;;
23360;SDS011;11852;50.082;18.554;2024-03-25T04:26:53;5.3;;;3.0;;
23360;SDS011;11852;50.082;18.554;2024-03-25T04:27:58;5.3;;;2.8;;
23360;SDS011;11852;50.082;18.554;2024-03-25T04:29:03;5.7;;;2.8;;
23360;SDS011;11852;50.082;18.554;2024-03-25T04:30:08;5.1;;;2.9;;
23360;SDS011;11852;50.082;18.554;2024-03-25T04:31:13;5.6;;;2.8;;
23360;SDS011;11852;50.082;18.554;2024-03-25T04:32:18;4.8;;;2.8;;
23360;SDS011;11852;50.082;18.554;2024-03-25T04:33:22;5.8;;;3.1;;
23360;SDS011;11852;50.082;18.554;2024-03-25T04:34:28;6.9;;;3.1;;
23360;SDS011;11852;50.082;18.554;2024-03-25T04:35:32;4.7;;;2.6;;
23360;SDS011;11852;50.082;18.554;2024-03-25T04:36:37;5.7;;;2.9;;
23360;SDS011;11852;50.082;18.554;2024-03-25T04:37:42;5.4;;;2.9;;
23360;SDS011;11852;50.082;18.554;2024-03-25T04:38:47;6.0;;;2.9;;
23360;SDS011;11852;50.082;18.554;2024-03-25T04:39:51;6.9;;;3.0;;
23360;SDS011;11852;50.082;18.554;2024-03-25T04:40:56;5.9;;;3.3;;
23360;SDS011;11852;50.082;18.554;2024-03-25T04:42:01;7.3;;;3.8;;
23360;SDS011;11852;50.082;18.554;2024-03-25T04:43:06;7.0;;;3.9;;
23360;SDS011;11852;50.082;18.554;2024-03-25T04:44:11;4.9;;;2.8;;
23360;SDS011;11852;50.082;18.554;2024-03-25T04:45:16;4.6;;;2.6;;
23360;SDS011;11852;50.082;18.554;2024-03-25T04:46:21;4.7;;;2.8;;
23360;SDS011;11852;50.082;18.554;2024-03-25T04:47:25;4.8;;;2.4;;
23360;SDS011;11852;50.082;18.554;2024-03-25T04:48:30;6.4;;;2.9;;
23360;SDS011;11852;50.082;18.554;2024-03-25T04:49:35;5.9;;;3.2;;
23360;SDS011;11852;50.082;18.554;2024-03-25T04:50:40;6.2;;;3.2;;
23360;SDS011;11852;50.082;18.554;2024-03-25T04:51:45;5.3;;;2.7;;
23360;SDS011;11852;50.082;18.554;2024-03-25T04:52:50;6.3;;;3.2;;
23360;SDS011;11852;50.082;18.554;2024-03-25T04:53:55;5.5;;;2.9;;
23360;SDS011;11852;50.082;18.554;2024-03-25T04:55:00;5.5;;;3.3;;
23360;SDS011;11852;50.082;18.554;2024-03-25T04:56:05;5.4;;;3.1;;
23360;SDS011;11852;50.082;18.554;2024-03-25T04:57:10;5.0;;;2.9;;
23360;SDS011;11852;50.082;18.554;2024-03-25T04:58:15;5.2;;;2.5;;
23360;SDS011;11852;50.082;18.554;2024-03-25T04:59:20;6.2;;;3.4;;
23360;SDS011;11852;50.082;18.554;2024-03-25T05:00:24;5.4;;;3.0;;
23360;SDS011;11852;50.082;18.554;2024-03-25T05:01:29;5.2;;;3.0;;
23360;SDS011;11852;50.082;18.554;2024-03-25T05:02:34;5.2;;;3.0;;
23360;SDS011;11852;50.082;18.554;2024-03-25T05:03:39;4.8;;;2.5;;
23360;SDS011;11852;50.082;18.554;2024-03-25T05:04:44;5.3;;;2.8;;
23360;SDS011;11852;50.082;18.554;2024-03-25T05:05:49;5.9;;;3.4;;
23360;SDS011;11852;50.082;18.554;2024-03-25T05:06:54;5.2;;;3.0;;
23360;SDS011;11852;50.082;18.554;2024-03-25T05:07:58;5.3;;;3.1;;
23360;SDS011;11852;50.082;18.554;2024-03-25T05:09:03;4.8;;;2.6;;
23360;SDS011;11852;50.082;18.554;2024-03-25T05:10:08;5.8;;;3.0;;
23360;SDS011;11852;50.082;18.554;2024-03-25T05:11:13;5.5;;;3.0;;
23360;SDS011;11852;50.082;18.554;2024-03-25T05:12:18;4.9;;;2.8;;
23360;SDS011;11852;50.082;18.554;2024-03-25T05:13:23;5.4;;;2.9;;
23360;SDS011;11852;50.082;18.554;2024-03-25T05:14:28;7.2;;;3.5;;
23360;SDS011;11852;50.082;18.554;2024-03-25T05:15:33;6.0;;;3.2;;
23360;SDS011;11852;50.082;18.554;2024-03-25T05:16:37;5.4;;;2.7;;
23360;SDS011;11852;50.082;18.554;2024-03-25T05:17:42;5.3;;;3.0;;
23360;SDS011;11852;50.082;18.554;2024-03-25T05:18:47;5.2;;;3.2;;
23360;SDS011;11852;50.082;18.554;2024-03-25T05:19:52;5.2;;;2.8;;
23360;SDS011;11852;50.082;18.554;2024-03-25T05:20:57;5.0;;;2.9;;
23360;SDS011;11852;50.082;18.554;2024-03-25T05:22:02;6.2;;;3.1;;
23360;SDS011;11852;50.082;18.554;2024-03-25T05:23:07;5.4;;;2.9;;
23360;SDS011;11852;50.082;18.554;2024-03-25T05:24:12;5.3;;;3.1;;
23360;SDS011;11852;50.082;18.554;2024-03-25T05:25:17;6.1;;;3.4;;
23360;SDS011;11852;50.082;18.554;2024-03-25T05:26:22;5.8;;;2.9;;
23360;SDS011;11852;50.082;18.554;2024-03-25T05:27:26;6.4;;;3.7;;
23360;SDS011;11852;50.082;18.554;2024-03-25T05:28:31;5.6;;;3.1;;
23360;SDS011;11852;50.082;18.554;2024-03-25T05:29:36;5.8;;;3.6;;
23360;SDS011;11852;50.082;18.554;2024-03-25T05:30:41;5.6;;;3.0;;
23360;SDS011;11852;50.082;18.554;2024-03-25T05:33:01;6.3;;;3.0;;
23360;SDS011;11852;50.082;18.554;2024-03-25T05:34:06;5.8;;;2.8;;
23360;SDS011;11852;50.082;18.554;2024-03-25T05:35:10;4.8;;;2.6;;
23360;SDS011;11852;50.082;18.554;2024-03-25T05:36:15;6.4;;;3.7;;
23360;SDS011;11852;50.082;18.554;2024-03-25T05:37:20;5.8;;;2.9;;
23360;SDS011;11852;50.082;18.554;2024-03-25T05:38:25;5.9;;;2.9;;
23360;SDS011;11852;50.082;18.554;2024-03-25T05:39:30;5.5;;;2.9;;
23360;SDS011;11852;50.082;18.554;2024-03-25T05:40:35;4.8;;;2.6;;
23360;SDS011;11852;50.082;18.554;2024-03-25T05:41:40;6.3;;;3.1;;
23360;SDS011;11852;50.082;18.554;2024-03-25T05:42:45;6.1;;;2.8;;
23360;SDS011;11852;50.082;18.554;2024-03-25T05:43:49;6.1;;;3.3;;
23360;SDS011;11852;50.082;18.554;2024-03-25T05:44:54;4.8;;;3.0;;
23360;SDS011;11852;50.082;18.554;2024-03-25T05:45:59;5.6;;;2.7;;
23360;SDS011;11852;50.082;18.554;2024-03-25T05:47:04;5.3;;;3.1;;
23360;SDS011;11852;50.082;18.554;2024-03-25T05:48:09;5.8;;;2.8;;
23360;SDS011;11852;50.082;18.554;2024-03-25T05:49:14;6.9;;;3.8;;
23360;SDS011;11852;50.082;18.554;2024-03-25T05:50:19;6.6;;;3.8;;
23360;SDS011;11852;50.082;18.554;2024-03-25T05:51:24;5.2;;;2.8;;
23360;SDS011;11852;50.082;18.554;2024-03-25T05:52:29;6.0;;;3.4;;
23360;SDS011;11852;50.082;18.554;2024-03-25T05:53:34;6.0;;;3.2;;
23360;SDS011;11852;50.082;18.554;2024-03-25T05:54:39;6.8;;;3.9;;
23360;SDS011;11852;50.082;18.554;2024-03-25T05:55:43;6.1;;;3.7;;
23360;SDS011;11852;50.082;18.554;2024-03-25T05:56:48;5.6;;;3.4;;
23360;SDS011;11852;50.082;18.554;2024-03-25T05:57:53;6.3;;;3.3;;
23360;SDS011;11852;50.082;18.554;2024-03-25T05:58:58;5.8;;;3.4;;
23360;SDS011;11852;50.082;18.554;2024-03-25T06:00:03;6.6;;;3.6;;
23360;SDS011;11852;50.082;18.554;2024-03-25T06:01:08;6.3;;;3.6;;
23360;SDS011;11852;50.082;18.554;2024-03-25T06:02:13;6.6;;;3.5;;
23360;SDS011;11852;50.082;18.554;2024-03-25T06:03:18;8.0;;;4.4;;
23360;SDS011;11852;50.082;18.554;2024-03-25T06:04:23;7.0;;;3.7;;
23360;SDS011;11852;50.082;18.554;2024-03-25T06:05:28;7.8;;;3.9;;
23360;SDS011;11852;50.082;18.554;2024-03-25T06:06:33;7.2;;;4.0;;
23360;SDS011;11852;50.082;18.554;2024-03-25T06:07:37;6.5;;;3.7;;
23360;SDS011;11852;50.082;18.554;2024-03-25T06:08:43;7.5;;;3.7;;
23360;SDS011;11852;50.082;18.554;2024-03-25T06:09:47;8.4;;;3.9;;
23360;SDS011;11852;50.082;18.554;2024-03-25T06:11:00;7.9;;;4.0;;
23360;SDS011;11852;50.082;18.554;2024-03-25T06:12:00;9.0;;;4.1;;
23360;SDS011;11852;50.082;18.554;2024-03-25T06:13:05;7.7;;;4.4;;
23360;SDS011;11852;50.082;18.554;2024-03-25T06:14:10;7.2;;;4.0;;
23360;SDS011;11852;50.082;18.554;2024-03-25T06:15:15;7.8;;;4.3;;
23360;SDS011;11852;50.082;18.554;2024-03-25T06:16:20;7.4;;;4.5;;
23360;SDS011;11852;50.082;18.554;2024-03-25T06:17:24;8.7;;;4.9;;
23360;SDS011;11852;50.082;18.554;2024-03-25T06:18:29;8.7;;;4.3;;
23360;SDS011;11852;50.082;18.554;2024-03-25T06:19:34;8.7;;;4.7;;
23360;SDS011;11852;50.082;18.554;2024-03-25T06:20:39;9.2;;;4.8;;
23360;SDS011;11852;50.082;18.554;2024-03-25T06:21:44;7.9;;;4.3;;
23360;SDS011;11852;50.082;18.554;2024-03-25T06:22:49;8.4;;;4.4;;
23360;SDS011;11852;50.082;18.554;2024-03-25T06:23:54;9.5;;;5.4;;
23360;SDS011;11852;50.082;18.554;2024-03-25T06:24:59;7.8;;;4.7;;
23360;SDS011;11852;50.082;18.554;2024-03-25T06:26:04;9.6;;;5.1;;
23360;SDS011;11852;50.082;18.554;2024-03-25T06:27:09;8.6;;;4.7;;
23360;SDS011;11852;50.082;18.554;2024-03-25T06:28:13;9.8;;;5.1;;
23360;SDS011;11852;50.082;18.554;2024-03-25T06:29:18;10.6;;;5.4;;
23360;SDS011;11852;50.082;18.554;2024-03-25T06:30:28;9.3;;;5.1;;
23360;SDS011;11852;50.082;18.554;2024-03-25T06:31:38;10.3;;;5.4;;
23360;SDS011;11852;50.082;18.554;2024-03-25T06:32:47;9.7;;;4.8;;
23360;SDS011;11852;50.082;18.554;2024-03-25T06:34:00;9.0;;;4.9;;
23360;SDS011;11852;50.082;18.554;2024-03-25T06:35:05;9.7;;;5.0;;
23360;SDS011;11852;50.082;18.554;2024-03-25T06:36:10;9.3;;;4.6;;
23360;SDS011;11852;50.082;18.554;2024-03-25T06:37:15;8.5;;;4.8;;
23360;SDS011;11852;50.082;18.554;2024-03-25T06:38:20;8.1;;;4.4;;